createdAt,value
2023-03-15T00:00:10.568Z,98671.88
2023-03-15T00:01:33.253Z,98669.16
2023-03-15T00:02:36.384Z,98667.90
2023-03-15T00:03:39.989Z,98675.83
2023-03-15T00:04:42.664Z,98681.20
2023-03-15T00:05:46.206Z,98683.52
2023-03-15T00:06:48.853Z,98683.77
2023-03-15T00:07:51.468Z,98694.08
2023-03-15T00:08:54.124Z,98692.46
2023-03-15T00:09:56.985Z,98692.52
2023-03-15T00:11:00.425Z,98696.88
2023-03-15T00:12:03.139Z,98701.60
2023-03-15T00:13:05.855Z,98705.70
2023-03-15T00:14:08.713Z,98704.54
2023-03-15T00:15:13.382Z,98706.84
2023-03-15T00:16:18.188Z,98708.60
2023-03-15T00:17:22.858Z,98711.56
2023-03-15T00:18:25.831Z,98714.91
2023-03-15T00:19:28.481Z,98714.95
2023-03-15T00:20:31.256Z,98719.21
2023-03-15T00:21:34.393Z,98723.73
2023-03-15T00:22:37.063Z,98721.20
2023-03-15T00:23:39.699Z,98726.20
2023-03-15T00:24:42.463Z,98734.06
2023-03-15T00:25:45.815Z,98736.48
2023-03-15T00:26:48.479Z,98737.96
2023-03-15T00:27:51.168Z,98753.82
2023-03-15T00:28:53.852Z,98755.84
2023-03-15T00:29:56.507Z,98765.11
2023-03-15T00:31:06.834Z,98767.72
2023-03-15T00:32:09.819Z,98778.77
2023-03-15T00:33:14.293Z,98792.73
2023-03-15T00:34:18.983Z,98802.23
2023-03-15T00:35:22.230Z,98812.05
2023-03-15T00:36:25.369Z,98816.21
2023-03-15T00:37:28.468Z,98818.11
2023-03-15T00:38:31.995Z,98830.67
2023-03-15T00:39:37.874Z,98828.98
2023-03-15T00:40:44.090Z,98834.48
2023-03-15T00:41:47.279Z,98853.98
2023-03-15T00:42:50.755Z,98865.67
2023-03-15T00:43:53.476Z,98871.95
2023-03-15T00:44:56.180Z,98875.78
2023-03-15T00:45:59.351Z,98887.20
2023-03-15T00:47:02.033Z,98894.09
2023-03-15T00:48:04.977Z,98902.84
2023-03-15T00:49:07.628Z,98904.44
2023-03-15T00:50:10.675Z,98917.04
2023-03-15T00:51:14.896Z,98917.87
2023-03-15T00:52:18.914Z,98931.15
2023-03-15T00:53:22.616Z,98939.53
2023-03-15T00:54:25.256Z,98949.30
2023-03-15T00:55:28.208Z,98950.52
2023-03-15T00:56:31.078Z,98949.89
2023-03-15T00:57:37.166Z,98958.06
2023-03-15T00:58:40.404Z,98961.57
2023-03-15T00:59:45.073Z,98970.23
2023-03-15T01:00:47.766Z,98973.31
2023-03-15T01:01:51.304Z,98977.45
2023-03-15T01:02:54.906Z,98982.91
2023-03-15T01:03:58.001Z,98984.77
2023-03-15T01:05:01.791Z,98988.87
2023-03-15T01:06:05.459Z,98990.91
2023-03-15T01:07:09.465Z,98999.02
2023-03-15T01:08:13.706Z,99003.25
2023-03-15T01:09:17.462Z,98995.25
2023-03-15T01:10:21.347Z,99004.57
2023-03-15T01:11:25.647Z,99001.89
2023-03-15T01:12:29.589Z,99006.82
2023-03-15T01:13:33.951Z,99015.89
2023-03-15T01:14:39.099Z,99022.40
2023-03-15T01:15:45.924Z,99022.05
2023-03-15T01:16:48.839Z,99023.63
2023-03-15T01:17:51.568Z,99029.12
2023-03-15T01:18:54.624Z,99031.34
2023-03-15T01:19:58.318Z,99033.83
2023-03-15T01:21:01.114Z,99036.51
2023-03-15T01:22:04.826Z,99033.13
2023-03-15T01:23:07.577Z,99033.30
2023-03-15T01:24:14.538Z,99038.35
2023-03-15T01:25:18.502Z,99050.48
2023-03-15T01:26:23.807Z,99050.89
2023-03-15T01:27:26.482Z,99052.38
2023-03-15T01:28:29.905Z,99060.50
2023-03-15T01:29:32.950Z,99057.92
2023-03-15T01:30:37.326Z,99068.79
2023-03-15T01:31:41.164Z,99075.73
2023-03-15T01:32:44.071Z,99075.54
2023-03-15T01:33:47.972Z,99078.73
2023-03-15T01:34:50.735Z,99081.97
2023-03-15T01:36:04.500Z,99080.55
2023-03-15T01:37:07.749Z,99088.39
2023-03-15T01:38:16.114Z,99085.66
2023-03-15T01:39:20.037Z,99082.34
2023-03-15T01:40:22.970Z,99084.91
2023-03-15T01:41:27.323Z,99084.23
2023-03-15T01:42:30.139Z,99089.02
2023-03-15T01:43:33.530Z,99088.05
2023-03-15T01:45:05.529Z,99098.06
2023-03-15T01:46:17.803Z,99112.97
2023-03-15T01:47:21.462Z,99122.18
2023-03-15T01:48:29.562Z,99131.54
2023-03-15T01:49:33.773Z,99141.64
2023-03-15T01:50:36.957Z,99140.52
2023-03-15T01:51:43.086Z,99147.52
2023-03-15T01:52:45.963Z,99149.34
2023-03-15T01:53:58.245Z,99164.33
2023-03-15T01:55:05.515Z,99171.56
2023-03-15T01:56:09.670Z,99171.19
2023-03-15T01:57:24.134Z,99170.39
2023-03-15T01:58:27.518Z,99170.86
2023-03-15T01:59:33.219Z,99169.61
2023-03-15T02:00:37.412Z,99180.95
2023-03-15T02:01:45.724Z,99186.59
2023-03-15T02:03:04.777Z,99192.27
2023-03-15T02:04:09.854Z,99198.10
2023-03-15T02:05:18.459Z,99208.94
2023-03-15T02:06:21.720Z,99212.81
2023-03-15T02:07:29.197Z,99215.39
2023-03-15T02:08:34.072Z,99222.24
2023-03-15T02:09:42.918Z,99224.26
2023-03-15T02:10:48.187Z,99229.92
2023-03-15T02:11:51.692Z,99231.75
2023-03-15T02:12:55.731Z,99234.77
2023-03-15T02:14:00.499Z,99237.85
2023-03-15T02:15:04.749Z,99236.90
2023-03-15T02:16:08.225Z,99246.67
2023-03-15T02:17:20.611Z,99249.46
2023-03-15T02:18:24.363Z,99252.27
2023-03-15T02:19:34.007Z,99254.52
2023-03-15T02:20:49.700Z,99267.30
2023-03-15T02:22:01.155Z,99255.98
2023-03-15T02:23:05.576Z,99260.50
2023-03-15T02:24:08.269Z,99255.35
2023-03-15T02:25:18.192Z,99255.81
2023-03-15T02:26:30.128Z,99268.95
2023-03-15T02:27:35.662Z,99267.58
2023-03-15T02:28:39.087Z,99274.67
2023-03-15T02:29:42.312Z,99276.13
2023-03-15T02:30:45.976Z,99279.36
2023-03-15T02:31:49.530Z,99281.34
2023-03-15T02:32:52.373Z,99288.65
2023-03-15T02:33:58.158Z,99285.96
2023-03-15T02:35:00.855Z,99295.25
2023-03-15T02:36:08.431Z,99299.35
2023-03-15T02:37:12.761Z,99304.02
2023-03-15T02:38:15.463Z,99309.19
2023-03-15T02:39:21.096Z,99307.77
2023-03-15T02:40:24.646Z,99311.10
2023-03-15T02:41:38.850Z,99308.21
2023-03-15T02:42:42.943Z,99309.77
2023-03-15T02:43:46.807Z,99317.17
2023-03-15T02:44:50.835Z,99321.63
2023-03-15T02:45:53.650Z,99320.31
2023-03-15T02:46:59.731Z,99324.76
2023-03-15T02:48:03.700Z,99335.30
2023-03-15T02:49:08.418Z,99336.63
2023-03-15T02:50:11.320Z,99339.80
2023-03-15T02:51:19.180Z,99342.23
2023-03-15T02:52:22.130Z,99351.05
2023-03-15T02:53:24.878Z,99347.87
2023-03-15T02:54:27.554Z,99345.70
2023-03-15T02:55:32.767Z,99343.84
2023-03-15T02:56:35.539Z,99342.42
2023-03-15T02:57:38.375Z,99352.02
2023-03-15T02:58:41.664Z,99344.12
2023-03-15T02:59:44.382Z,99357.66
2023-03-15T03:00:47.958Z,99359.66
2023-03-15T03:01:51.216Z,99362.65
2023-03-15T03:02:54.479Z,99366.42
2023-03-15T03:03:57.175Z,99375.63
2023-03-15T03:05:00.443Z,99381.23
2023-03-15T03:06:03.159Z,99384.82
2023-03-15T03:07:05.840Z,99390.92
2023-03-15T03:08:16.679Z,99393.26
2023-03-15T03:09:19.717Z,99390.10
2023-03-15T03:10:22.884Z,99392.23
2023-03-15T03:11:28.676Z,99393.38
2023-03-15T03:12:32.978Z,99396.26
2023-03-15T03:13:36.223Z,99395.36
2023-03-15T03:14:39.968Z,99397.52
2023-03-15T03:15:45.907Z,99398.86
2023-03-15T03:16:50.491Z,99401.27
2023-03-15T03:17:54.558Z,99399.09
2023-03-15T03:18:58.817Z,99401.08
2023-03-15T03:20:10.705Z,99409.06
2023-03-15T03:21:15.966Z,99413.36
2023-03-15T03:22:19.480Z,99419.15
2023-03-15T03:23:25.786Z,99424.04
2023-03-15T03:24:28.574Z,99423.77
2023-03-15T03:25:31.576Z,99429.23
2023-03-15T03:26:34.335Z,99430.73
2023-03-15T03:27:37.751Z,99427.99
2023-03-15T03:28:41.815Z,99435.56
2023-03-15T03:29:44.929Z,99431.59
2023-03-15T03:30:47.887Z,99439.58
2023-03-15T03:31:50.942Z,99441.41
2023-03-15T03:32:56.127Z,99434.67
2023-03-15T03:33:58.888Z,99440.96
2023-03-15T03:35:02.689Z,99442.95
2023-03-15T03:36:05.692Z,99454.20
2023-03-15T03:37:08.532Z,99447.34
2023-03-15T03:38:44.944Z,99446.79
2023-03-15T03:39:47.782Z,99452.06
2023-03-15T03:40:51.662Z,99449.60
2023-03-15T03:41:54.356Z,99458.12
2023-03-15T03:42:57.015Z,99460.66
2023-03-15T03:44:00.012Z,99456.52
2023-03-15T03:45:04.098Z,99453.73
2023-03-15T03:46:12.603Z,99461.71
2023-03-15T03:47:19.417Z,99456.36
2023-03-15T03:48:22.207Z,99459.29
2023-03-15T03:49:24.991Z,99461.23
2023-03-15T03:50:28.120Z,99463.55
2023-03-15T03:51:31.270Z,99465.80
2023-03-15T03:52:33.995Z,99466.77
2023-03-15T03:53:41.424Z,99472.95
2023-03-15T03:54:44.156Z,99480.57
2023-03-15T03:55:46.873Z,99476.37
2023-03-15T03:56:53.537Z,99483.27
2023-03-15T03:57:58.426Z,99488.45
2023-03-15T03:59:20.322Z,99493.10
2023-03-15T04:00:30.958Z,99490.21
2023-03-15T04:01:33.754Z,99490.69
2023-03-15T04:02:36.506Z,99492.84
2023-03-15T04:03:42.113Z,99494.77
2023-03-15T04:04:50.351Z,99495.27
2023-03-15T04:05:55.907Z,99500.34
2023-03-15T04:06:59.878Z,99500.89
2023-03-15T04:08:07.940Z,99506.13
2023-03-15T04:09:15.814Z,99509.66
2023-03-15T04:10:26.927Z,99511.98
2023-03-15T04:11:30.165Z,99516.04
2023-03-15T04:12:37.141Z,99515.00
2023-03-15T04:13:40.196Z,99521.02
2023-03-15T04:14:43.039Z,99523.15
2023-03-15T04:15:47.739Z,99525.35
2023-03-15T04:16:50.549Z,99520.92
2023-03-15T04:17:58.530Z,99524.06
2023-03-15T04:19:08.178Z,99522.83
2023-03-15T04:20:13.058Z,99528.07
2023-03-15T04:21:23.092Z,99527.36
2023-03-15T04:22:28.841Z,99527.99
2023-03-15T04:23:50.103Z,99531.36
2023-03-15T04:25:04.792Z,99531.95
2023-03-15T04:26:30.523Z,99534.51
2023-03-15T04:27:45.031Z,99530.92
2023-03-15T04:29:09.369Z,99537.39
2023-03-15T04:30:35.214Z,99541.80
2023-03-15T04:32:02.161Z,99543.70
2023-03-15T04:33:24.579Z,99552.09
2023-03-15T04:34:39.110Z,99556.48
2023-03-15T04:35:49.303Z,99555.55
2023-03-15T04:37:12.273Z,99554.44
2023-03-15T04:38:32.377Z,99557.27
2023-03-15T04:39:43.238Z,99553.73
2023-03-15T04:41:10.937Z,99553.02
2023-03-15T04:42:32.307Z,99553.78
2023-03-15T04:43:56.399Z,99552.88
2023-03-15T04:45:09.434Z,99558.85
2023-03-15T04:46:28.611Z,99557.83
2023-03-15T04:47:51.815Z,99560.50
2023-03-15T04:49:20.722Z,99566.54
2023-03-15T04:50:30.915Z,99564.69
2023-03-15T04:51:52.618Z,99569.91
2023-03-15T04:53:07.745Z,99567.94
2023-03-15T04:54:30.163Z,99565.96
2023-03-15T04:55:58.859Z,99569.27
2023-03-15T04:57:10.394Z,99571.57
2023-03-15T04:58:30.921Z,99567.04
2023-03-15T04:59:59.813Z,99567.06
2023-03-15T05:01:23.847Z,99577.77
2023-03-15T05:02:55.239Z,99581.02
2023-03-15T05:04:05.721Z,99582.65
2023-03-15T05:05:35.192Z,99584.84
2023-03-15T05:07:00.416Z,99589.70
2023-03-15T05:08:21.631Z,99593.81
2023-03-15T05:09:48.045Z,99592.77
2023-03-15T05:11:06.582Z,99596.99
2023-03-15T05:12:33.793Z,99592.34
2023-03-15T05:13:56.825Z,99598.55
2023-03-15T05:15:25.595Z,99602.45
2023-03-15T05:16:56.485Z,99602.08
2023-03-15T05:18:08.620Z,99608.25
2023-03-15T05:19:37.546Z,99613.13
2023-03-15T05:20:59.113Z,99614.80
2023-03-15T05:22:25.521Z,99615.95
2023-03-15T05:23:43.252Z,99625.83
2023-03-15T05:25:04.800Z,99626.81
2023-03-15T05:26:26.145Z,99628.08
2023-03-15T05:27:50.779Z,99628.83
2023-03-15T05:29:02.288Z,99634.63
2023-03-15T05:30:22.241Z,99635.81
2023-03-15T05:31:43.378Z,99632.31
2023-03-15T05:32:58.051Z,99630.92
2023-03-15T05:34:24.342Z,99633.10
2023-03-15T05:35:37.872Z,99631.87
2023-03-15T05:37:10.469Z,99631.29
2023-03-15T05:38:37.771Z,99635.49
2023-03-15T05:40:01.447Z,99636.55
2023-03-15T05:41:23.932Z,99640.13
2023-03-15T05:42:35.499Z,99640.59
2023-03-15T05:43:56.598Z,99647.95
2023-03-15T05:45:38.351Z,99649.84
2023-03-15T05:47:00.297Z,99656.27
2023-03-15T05:48:21.863Z,99658.36
2023-03-15T05:50:00.324Z,99661.02
2023-03-15T05:51:20.854Z,99658.66
2023-03-15T05:52:41.839Z,99668.77
2023-03-15T05:53:51.335Z,99673.98
2023-03-15T05:55:14.342Z,99678.53
2023-03-15T05:56:28.973Z,99682.90
2023-03-15T05:57:52.038Z,99691.06
2023-03-15T05:59:11.425Z,99701.34
2023-03-15T06:00:26.392Z,99700.39
2023-03-15T06:01:29.959Z,99702.64
2023-03-15T06:02:41.462Z,99706.25
2023-03-15T06:03:55.610Z,99706.92
2023-03-15T06:04:59.518Z,99709.10
2023-03-15T06:06:03.437Z,99707.38
2023-03-15T06:07:11.714Z,99705.87
2023-03-15T06:08:14.478Z,99707.48
2023-03-15T06:09:19.140Z,99704.83
2023-03-15T06:10:23.317Z,99706.02
2023-03-15T06:11:26.359Z,99704.77
2023-03-15T06:12:29.761Z,99709.63
2023-03-15T06:13:33.269Z,99706.08
2023-03-15T06:14:37.711Z,99710.60
2023-03-15T06:15:43.126Z,99709.80
2023-03-15T06:16:46.061Z,99713.45
2023-03-15T06:17:49.174Z,99712.86
2023-03-15T06:18:51.867Z,99718.95
2023-03-15T06:19:54.880Z,99719.96
2023-03-15T06:20:57.581Z,99720.48
2023-03-15T06:22:00.269Z,99717.45
2023-03-15T06:23:14.576Z,99719.34
2023-03-15T06:24:21.228Z,99723.09
2023-03-15T06:25:24.571Z,99723.79
2023-03-15T06:26:27.260Z,99728.59
2023-03-15T06:27:33.828Z,99732.20
2023-03-15T06:28:37.676Z,99734.61
2023-03-15T06:29:40.819Z,99739.41
2023-03-15T06:30:43.768Z,99740.98
2023-03-15T06:31:49.722Z,99741.05
2023-03-15T06:32:53.212Z,99745.38
2023-03-15T06:33:56.048Z,99750.54
2023-03-15T06:34:58.786Z,99748.69
2023-03-15T06:36:01.540Z,99756.45
2023-03-15T06:37:04.865Z,99756.71
2023-03-15T06:38:07.622Z,99767.40
2023-03-15T06:39:12.534Z,99769.86
2023-03-15T06:40:15.366Z,99775.04
2023-03-15T06:41:18.651Z,99774.37
2023-03-15T06:42:21.641Z,99782.96
2023-03-15T06:43:24.949Z,99782.32
2023-03-15T06:44:27.779Z,99787.51
2023-03-15T06:45:33.989Z,99794.91
2023-03-15T06:46:37.166Z,99798.93
2023-03-15T06:47:40.295Z,99793.16
2023-03-15T06:48:43.213Z,99798.02
2023-03-15T06:49:50.393Z,99797.20
2023-03-15T06:50:53.389Z,99791.27
2023-03-15T06:51:56.097Z,99801.42
2023-03-15T06:52:59.902Z,99797.98
2023-03-15T06:54:03.072Z,99799.23
2023-03-15T06:55:07.187Z,99807.86
2023-03-15T06:56:10.015Z,99812.95
2023-03-15T06:57:13.090Z,99821.86
2023-03-15T06:58:15.884Z,99829.56
2023-03-15T06:59:18.527Z,99827.94
2023-03-15T07:00:22.629Z,99836.55
2023-03-15T07:01:25.359Z,99836.08
2023-03-15T07:02:28.137Z,99837.90
2023-03-15T07:03:30.988Z,99841.68
2023-03-15T07:04:33.647Z,99835.25
2023-03-15T07:05:37.281Z,99833.82
2023-03-15T07:06:40.000Z,99834.02
2023-03-15T07:07:42.973Z,99835.29
2023-03-15T07:08:45.641Z,99832.33
2023-03-15T07:09:48.408Z,99841.83
2023-03-15T07:10:51.136Z,99843.45
2023-03-15T07:11:53.801Z,99852.97
2023-03-15T07:12:56.585Z,99857.13
2023-03-15T07:13:59.258Z,99852.38
2023-03-15T07:15:02.019Z,99852.84
2023-03-15T07:16:04.946Z,99855.13
2023-03-15T07:17:07.868Z,99843.27
2023-03-15T07:18:10.610Z,99849.58
2023-03-15T07:19:13.335Z,99847.10
2023-03-15T07:20:16.301Z,99855.60
2023-03-15T07:21:19.508Z,99849.09
2023-03-15T07:22:23.026Z,99846.50
2023-03-15T07:23:25.972Z,99853.98
2023-03-15T07:24:28.640Z,99849.46
2023-03-15T07:25:31.455Z,99850.41
2023-03-15T07:26:34.200Z,99856.98
2023-03-15T07:27:36.882Z,99852.25
2023-03-15T07:28:39.532Z,99859.50
2023-03-15T07:29:42.442Z,99854.70
2023-03-15T07:30:52.213Z,99861.23
2023-03-15T07:31:54.960Z,99861.95
2023-03-15T07:32:57.686Z,99857.60
2023-03-15T07:34:00.642Z,99860.00
2023-03-15T07:35:03.367Z,99862.54
2023-03-15T07:36:07.249Z,99860.00
2023-03-15T07:37:13.579Z,99855.11
2023-03-15T07:38:16.267Z,99853.11
2023-03-15T07:39:19.054Z,99853.92
2023-03-15T07:40:21.783Z,99858.20
2023-03-15T07:41:24.473Z,99853.96
2023-03-15T07:42:33.629Z,99859.48
2023-03-15T07:43:36.593Z,99857.48
2023-03-15T07:44:50.752Z,99863.53
2023-03-15T07:45:53.454Z,99861.54
2023-03-15T07:46:56.239Z,99856.98
2023-03-15T07:47:59.159Z,99857.77
2023-03-15T07:49:01.831Z,99859.89
2023-03-15T07:50:05.489Z,99870.14
2023-03-15T07:51:08.346Z,99871.60
2023-03-15T07:52:11.147Z,99872.98
2023-03-15T07:53:13.904Z,99872.42
2023-03-15T07:54:16.678Z,99876.13
2023-03-15T07:55:19.589Z,99876.05
2023-03-15T07:56:22.240Z,99878.41
2023-03-15T07:57:25.844Z,99879.60
2023-03-15T07:58:29.838Z,99885.73
2023-03-15T07:59:33.718Z,99890.36
2023-03-15T08:00:42.958Z,99895.27
2023-03-15T08:01:45.779Z,99899.25
2023-03-15T08:02:48.833Z,99902.98
2023-03-15T08:03:51.604Z,99904.27
2023-03-15T08:04:54.245Z,99906.09
2023-03-15T08:05:57.038Z,99904.93
2023-03-15T08:06:59.789Z,99904.97
2023-03-15T08:08:02.779Z,99905.52
2023-03-15T08:09:06.807Z,99907.26
2023-03-15T08:10:09.773Z,99909.15
2023-03-15T08:11:12.729Z,99907.21
2023-03-15T08:12:15.770Z,99911.75
2023-03-15T08:13:18.418Z,99909.44
2023-03-15T08:14:21.200Z,99921.15
2023-03-15T08:15:24.427Z,99925.32
2023-03-15T08:17:04.644Z,99927.99
2023-03-15T08:18:28.990Z,99932.73
2023-03-15T08:19:31.780Z,99931.59
2023-03-15T08:20:34.480Z,99934.21
2023-03-15T08:21:37.218Z,99935.04
2023-03-15T08:22:40.054Z,99939.42
2023-03-15T08:23:42.701Z,99940.98
2023-03-15T08:24:46.092Z,99948.33
2023-03-15T08:25:50.106Z,99951.15
2023-03-15T08:26:52.821Z,99952.77
2023-03-15T08:27:56.278Z,99954.13
2023-03-15T08:28:59.254Z,99950.74
2023-03-15T08:30:01.904Z,99953.06
2023-03-15T08:31:08.325Z,99959.42
2023-03-15T08:32:11.105Z,99958.23
2023-03-15T08:33:13.787Z,99961.98
2023-03-15T08:34:16.496Z,99965.02
2023-03-15T08:35:21.086Z,99962.46
2023-03-15T08:36:23.784Z,99964.56
2023-03-15T08:37:26.760Z,99963.55
2023-03-15T08:38:29.471Z,99964.39
2023-03-15T08:39:32.134Z,99965.73
2023-03-15T08:40:34.861Z,99966.42
2023-03-15T08:41:37.609Z,99964.80
2023-03-15T08:42:40.407Z,99968.70
2023-03-15T08:43:43.450Z,99971.92
2023-03-15T08:44:46.112Z,99977.86
2023-03-15T08:46:00.619Z,99981.46
2023-03-15T08:47:05.307Z,99985.13
2023-03-15T08:48:08.038Z,99987.40
2023-03-15T08:49:10.975Z,99984.89
2023-03-15T08:50:15.228Z,99988.10
2023-03-15T08:51:17.991Z,99982.39
2023-03-15T08:52:21.512Z,99989.19
2023-03-15T08:53:24.160Z,99985.73
2023-03-15T08:54:27.585Z,99986.43
2023-03-15T08:55:30.799Z,99987.98
2023-03-15T08:56:33.821Z,99999.25
2023-03-15T08:57:36.878Z,99994.84
2023-03-15T08:58:39.604Z,99992.11
2023-03-15T08:59:43.842Z,99998.04
2023-03-15T09:00:48.557Z,99998.00
2023-03-15T09:01:51.251Z,99996.74
2023-03-15T09:02:54.091Z,100007.14
2023-03-15T09:03:56.893Z,100005.04
2023-03-15T09:04:59.825Z,100005.44
2023-03-15T09:06:02.497Z,100008.77
2023-03-15T09:07:06.239Z,100004.88
2023-03-15T09:08:09.208Z,99999.72
2023-03-15T09:09:11.907Z,100005.76
2023-03-15T09:10:15.827Z,100008.69
2023-03-15T09:11:18.496Z,100005.27
2023-03-15T09:12:21.503Z,100005.64
2023-03-15T09:13:24.588Z,100006.84
2023-03-15T09:14:27.373Z,100011.20
2023-03-15T09:15:30.500Z,100017.91
2023-03-15T09:16:33.182Z,100008.30
2023-03-15T09:17:35.977Z,100014.17
2023-03-15T09:18:40.615Z,100017.17
2023-03-15T09:19:43.254Z,100019.81
2023-03-15T09:20:46.105Z,100023.98
2023-03-15T09:21:48.919Z,100025.21
2023-03-15T09:22:52.771Z,100023.65
2023-03-15T09:23:55.493Z,100022.02
2023-03-15T09:24:58.185Z,100023.21
2023-03-15T09:26:00.991Z,100026.64
2023-03-15T09:27:03.704Z,100026.58
2023-03-15T09:28:07.932Z,100031.28
2023-03-15T09:29:10.746Z,100023.38
2023-03-15T09:30:14.112Z,100023.66
2023-03-15T09:31:16.868Z,100025.22
2023-03-15T09:32:21.161Z,100022.98
2023-03-15T09:33:23.851Z,100029.30
2023-03-15T09:34:27.561Z,100032.41
2023-03-15T09:35:33.491Z,100032.57
2023-03-15T09:36:36.275Z,100029.36
2023-03-15T09:37:38.988Z,100034.30
2023-03-15T09:38:43.075Z,100031.88
2023-03-15T09:39:45.692Z,100032.44
2023-03-15T09:40:48.436Z,100034.70
2023-03-15T09:41:53.637Z,100037.99
2023-03-15T09:42:59.124Z,100039.77
2023-03-15T09:44:09.363Z,100038.92
2023-03-15T09:45:32.493Z,100035.91
2023-03-15T09:47:04.504Z,100029.65
2023-03-15T09:48:18.107Z,100028.08
2023-03-15T09:49:28.394Z,100029.61
2023-03-15T09:50:33.125Z,100030.13
2023-03-15T09:51:48.084Z,100020.88
2023-03-15T09:53:11.047Z,100022.14
2023-03-15T09:54:18.154Z,100020.95
2023-03-15T09:55:23.590Z,100028.55
2023-03-15T09:56:49.292Z,100024.73
2023-03-15T09:57:59.837Z,100025.01
2023-03-15T09:59:03.085Z,100017.62
2023-03-15T10:00:12.860Z,100021.91
2023-03-15T10:01:17.192Z,100020.34
2023-03-15T10:02:23.872Z,100020.38
2023-03-15T10:03:29.380Z,100019.27
2023-03-15T10:04:40.518Z,100016.34
2023-03-15T10:05:45.926Z,100018.45
2023-03-15T10:06:54.227Z,100021.09
2023-03-15T10:07:57.646Z,100017.39
2023-03-15T10:09:01.953Z,100023.42
2023-03-15T10:10:08.950Z,100018.79
2023-03-15T10:11:18.827Z,100022.56
2023-03-15T10:12:26.465Z,100016.52
2023-03-15T10:13:38.952Z,100018.20
2023-03-15T10:15:00.853Z,100017.91
2023-03-15T10:16:11.217Z,100010.11
2023-03-15T10:17:15.767Z,100017.80
2023-03-15T10:18:28.035Z,100006.52
2023-03-15T10:19:50.258Z,100012.48
2023-03-15T10:21:06.452Z,100022.89
2023-03-15T10:22:10.190Z,100028.18
2023-03-15T10:23:12.852Z,100029.14
2023-03-15T10:24:34.548Z,100033.98
2023-03-15T10:25:37.775Z,100035.15
2023-03-15T10:26:42.213Z,100033.27
2023-03-15T10:27:49.898Z,100031.61
2023-03-15T11:12:27.661Z,100029.34
2023-03-15T11:13:33.426Z,100034.17
2023-03-15T11:14:43.562Z,100030.63
2023-03-15T11:15:55.346Z,100028.34
2023-03-15T11:16:59.140Z,100028.83
2023-03-15T11:18:01.941Z,100025.06
2023-03-15T11:19:15.334Z,100026.66
2023-03-15T11:21:42.551Z,100028.89
2023-03-15T11:22:45.418Z,100027.38
2023-03-15T11:23:50.285Z,100029.16
2023-03-15T11:24:54.832Z,100026.50
2023-03-15T11:25:58.399Z,100028.45
2023-03-15T11:27:04.053Z,100028.73
2023-03-15T11:28:15.827Z,100032.92
2023-03-15T11:29:34.488Z,100030.73
2023-03-15T11:30:41.384Z,100031.10
2023-03-15T11:31:44.460Z,100028.19
2023-03-15T11:34:12.469Z,100035.20
2023-03-15T11:35:39.931Z,100038.02
2023-03-15T11:36:55.686Z,100034.08
2023-03-15T11:38:15.446Z,100034.52
2023-03-15T11:39:39.585Z,100031.58
2023-03-15T11:40:51.140Z,100023.33
2023-03-15T11:41:59.316Z,100037.99
2023-03-15T11:43:15.381Z,100024.20
2023-03-15T11:44:30.224Z,100028.86
2023-03-15T11:45:43.405Z,100040.10
2023-03-15T11:47:28.309Z,100030.80
2023-03-15T11:48:57.219Z,100032.73
2023-03-15T11:50:00.132Z,100032.73
2023-03-15T11:51:03.240Z,100033.45
2023-03-15T11:52:06.678Z,100030.80
2023-03-15T11:53:12.655Z,100035.67
2023-03-15T11:54:20.974Z,100032.46
2023-03-15T11:55:28.847Z,100036.66
2023-03-15T11:56:43.964Z,100036.19
2023-03-15T11:57:49.512Z,100033.05
2023-03-15T11:59:15.435Z,100039.29
2023-03-15T12:00:34.545Z,100030.98
2023-03-15T12:01:38.028Z,100035.73
2023-03-15T12:02:49.006Z,100035.57
2023-03-15T12:04:26.634Z,100036.69
2023-03-15T12:05:49.655Z,100040.30
2023-03-15T12:06:54.758Z,100050.34
2023-03-15T12:08:15.658Z,100044.90
2023-03-15T12:09:33.380Z,100042.42
2023-03-15T12:10:46.433Z,100048.54
2023-03-15T12:11:49.597Z,100054.30
2023-03-15T12:12:58.972Z,100047.95
2023-03-15T12:14:01.817Z,100055.84
2023-03-15T12:15:19.805Z,100051.50
2023-03-15T12:16:26.494Z,100055.02
2023-03-15T12:17:37.327Z,100052.34
2023-03-15T12:18:45.005Z,100053.56
2023-03-15T12:19:47.969Z,100056.33
2023-03-15T12:20:58.523Z,100057.00
2023-03-15T12:22:01.383Z,100061.14
2023-03-15T12:23:19.665Z,100059.17
2023-03-15T12:24:27.281Z,100062.56
2023-03-15T12:25:45.473Z,100064.59
2023-03-15T12:27:18.600Z,100062.27
2023-03-15T12:28:28.700Z,100072.05
2023-03-15T12:29:34.006Z,100077.55
2023-03-15T12:30:45.373Z,100076.88
2023-03-15T12:32:03.360Z,100078.90
2023-03-15T12:33:16.938Z,100074.67
2023-03-15T12:34:51.199Z,100074.60
2023-03-15T12:36:08.096Z,100073.73
2023-03-15T12:37:16.862Z,100088.13
2023-03-15T12:38:24.314Z,100083.52
2023-03-15T12:39:39.163Z,100088.40
2023-03-15T12:40:50.410Z,100086.40
2023-03-15T12:41:53.250Z,100087.27
2023-03-15T12:42:57.383Z,100088.05
2023-03-15T12:44:21.925Z,100084.78
2023-03-15T12:45:27.713Z,100080.55
2023-03-15T12:46:36.852Z,100090.73
2023-03-15T12:47:46.755Z,100094.95
2023-03-15T12:49:18.578Z,100094.82
2023-03-15T12:50:47.200Z,100091.23
2023-03-15T12:51:59.365Z,100088.51
2023-03-15T12:53:15.617Z,100093.11
2023-03-15T12:54:18.932Z,100089.71
2023-03-15T12:55:21.949Z,100096.50
2023-03-15T12:56:42.593Z,100102.25
2023-03-15T12:57:49.065Z,100099.34
2023-03-15T12:58:58.286Z,100104.27
2023-03-15T13:00:12.888Z,100107.11
2023-03-15T13:01:17.757Z,100111.02
2023-03-15T13:02:45.623Z,100111.70
2023-03-15T13:03:48.593Z,100101.58
2023-03-15T13:05:00.449Z,100110.11
2023-03-15T13:06:13.230Z,100116.12
2023-03-15T13:07:50.943Z,100108.11
2023-03-15T13:08:58.017Z,100107.06
2023-03-15T13:10:16.261Z,100116.86
2023-03-15T13:12:00.421Z,100112.59
2023-03-15T13:13:25.377Z,100118.57
2023-03-15T13:14:39.828Z,100116.33
2023-03-15T13:15:42.895Z,100117.83
2023-03-15T13:16:56.429Z,100119.67
2023-03-15T13:18:09.535Z,100118.98
2023-03-15T13:19:18.943Z,100123.55
2023-03-15T13:20:38.701Z,100123.24
2023-03-15T13:22:05.781Z,100118.94
2023-03-15T13:23:20.132Z,100120.85
2023-03-15T13:24:36.045Z,100129.19
2023-03-15T13:25:48.106Z,100127.62
2023-03-15T13:27:30.248Z,100133.64
2023-03-15T13:28:39.890Z,100134.95
2023-03-15T13:29:42.703Z,100138.48
2023-03-15T13:30:52.569Z,100144.34
2023-03-15T13:32:16.470Z,100136.38
2023-03-15T13:33:32.241Z,100136.21
2023-03-15T13:34:35.699Z,100148.80
2023-03-15T13:35:54.775Z,100140.08
2023-03-15T13:36:59.096Z,100150.27
2023-03-15T13:38:20.865Z,100143.15
2023-03-15T13:39:32.536Z,100141.33
2023-03-15T13:40:35.461Z,100139.60
2023-03-15T13:41:38.699Z,100149.55
2023-03-15T13:42:42.844Z,100144.73
2023-03-15T13:43:46.608Z,100151.90
2023-03-15T13:45:17.715Z,100151.65
2023-03-15T13:46:26.801Z,100142.70
2023-03-15T13:47:29.601Z,100149.69
2023-03-15T13:48:35.577Z,100155.23
2023-03-15T13:49:38.364Z,100151.54
2023-03-15T13:50:41.160Z,100155.48
2023-03-15T13:51:45.868Z,100152.48
2023-03-15T13:52:49.193Z,100150.08
2023-03-15T13:54:00.900Z,100156.48
2023-03-15T13:55:05.409Z,100155.84
2023-03-15T13:56:09.911Z,100158.56
2023-03-15T13:57:16.476Z,100159.70
2023-03-15T13:58:21.459Z,100158.02
2023-03-15T13:59:30.148Z,100153.27